Aviation Digital Data Service (ADDS)

Output produced by METARs form (0254 UTC 03 July 2022)
found at http://www.aviationweather.gov/metar/data/
 
Forecast for: KBHM (BIRMINGHAM , AL, US)
Text: KBHM 030142Z 0302/0324 VRB03KT P6SM FEW040 SCT250
Forecast period: 0200 to 0300 UTC 03 July 2022
Forecast type: FROM: standard forecast or significant change
Winds: variable direction winds at 3 MPH (3 knots; 1.5 m/s)
Visibility: 6 or more miles (10+ km)
Ceiling: at least 12,000 feet AGL
Clouds: few clouds at 4000 feet AGL
scattered clouds at 25000 feet AGL
Weather: no significant weather forecast for this period
Text: FM030300 00000KT P6SM SCT250
Forecast period: 0300 to 1800 UTC 03 July 2022
Forecast type: FROM: standard forecast or significant change
Winds: calm
Visibility: 6 or more miles (10+ km)
Ceiling: at least 12,000 feet AGL
Clouds: scattered clouds at 25000 feet AGL
Weather: no significant weather forecast for this period
Text: FM031800 VRB04KT P6SM SCT060
Forecast period: 1800 UTC 03 July 2022 to 0000 UTC 04 July 2022
Forecast type: FROM: standard forecast or significant change
Winds: variable direction winds at 5 MPH (4 knots; 2.1 m/s)
Visibility: 6 or more miles (10+ km)
Ceiling: at least 12,000 feet AGL
Clouds: scattered clouds at 6000 feet AGL
Weather: no significant weather forecast for this period